Time;durP1;ratioP1;P1;durP2;ratioP2;P2;SDS_P1;SDS_P2;PMS_P1;PMS_P2;Temp;Humidity;BMP_temperature;BMP_pressure;BME280_temperature;BME280_humidity;BME280_pressure;Samples;Min_cycle;Max_cycle;Signal;HPM_P1;HPM_P2
2022/07/23 00:00:09;;;;;;;5.15;4.07;;;17.30;99.90;;;;;;5065106;28;20383;-82
2022/07/23 00:02:35;;;;;;;8.25;4.95;;;17.30;99.90;;;;;;5074912;28;20060;-81
2022/07/23 00:05:07;;;;;;;6.47;5.20;;;17.30;99.90;;;;;;5056166;28;20025;-82
2022/07/23 00:07:33;;;;;;;9.60;4.97;;;17.30;99.90;;;;;;5066692;28;20029;-82
2022/07/23 00:09:58;;;;;;;16.15;5.75;;;17.30;99.90;;;;;;5075150;28;20368;-81
2022/07/23 00:12:32;;;;;;;7.03;5.38;;;17.30;99.90;;;;;;5064686;28;20473;-81
2022/07/23 00:14:57;;;;;;;4.95;4.45;;;17.30;99.90;;;;;;5068082;28;20052;-82
2022/07/23 00:17:23;;;;;;;6.75;4.60;;;17.40;99.90;;;;;;5057314;28;20035;-81
2022/07/23 00:19:48;;;;;;;7.68;4.65;;;17.40;99.90;;;;;;5069527;28;20104;-81
2022/07/23 00:22:14;;;;;;;5.03;4.53;;;17.30;99.90;;;;;;5053481;28;20040;-81
2022/07/23 00:24:45;;;;;;;9.07;5.20;;;17.30;99.90;;;;;;5070098;28;20383;-81
2022/07/23 00:27:10;;;;;;;9.23;4.78;;;17.40;99.90;;;;;;5059145;28;20037;-82
2022/07/23 00:29:37;;;;;;;5.82;4.30;;;17.30;99.90;;;;;;5072594;28;20029;-82
2022/07/23 00:32:02;;;;;;;8.45;5.38;;;17.40;99.90;;;;;;5060690;28;20522;-82
2022/07/23 00:34:37;;;;;;;9.63;4.88;;;17.30;99.90;;;;;;5069475;28;20024;-81
2022/07/23 00:37:03;;;;;;;18.98;6.45;;;17.40;99.90;;;;;;5057580;28;20353;-81
2022/07/23 00:39:28;;;;;;;9.43;5.65;;;17.30;99.90;;;;;;5054621;28;20028;-81
2022/07/23 00:42:00;;;;;;;5.00;4.47;;;17.20;99.90;;;;;;5054359;28;20108;-81
2022/07/23 00:44:28;;;;;;;6.38;4.50;;;17.30;99.90;;;;;;5065620;28;20024;-81
2022/07/23 00:46:58;;;;;;;6.72;5.05;;;17.30;99.90;;;;;;5068027;28;20431;-81
2022/07/23 00:49:29;;;;;;;10.63;5.43;;;17.30;99.90;;;;;;5054043;28;20090;-82
2022/07/23 00:51:55;;;;;;;6.82;5.13;;;17.40;99.90;;;;;;5060598;28;20384;-81
2022/07/23 00:54:39;;;;;;;10.52;5.18;;;17.40;99.90;;;;;;5073857;28;20028;-81
2022/07/23 00:57:04;;;;;;;10.45;5.47;;;17.30;99.90;;;;;;5073781;28;20025;-81
2022/07/23 00:59:30;;;;;;;9.00;5.80;;;17.30;99.90;;;;;;5067691;28;20025;-81
2022/07/23 01:01:56;;;;;;;10.27;5.20;;;17.30;99.90;;;;;;5063954;28;20029;-82
2022/07/23 01:04:22;;;;;;;10.25;5.97;;;17.30;99.90;;;;;;5054708;28;20028;-81
2022/07/23 01:06:49;;;;;;;13.38;6.82;;;17.30;99.90;;;;;;5054043;28;20039;-81
2022/07/23 01:09:15;;;;;;;11.07;5.82;;;17.30;99.90;;;;;;5068737;28;20392;-82
2022/07/23 01:11:46;;;;;;;13.77;7.07;;;17.30;99.90;;;;;;5057891;28;20035;-83
2022/07/23 01:14:58;;;;;;;25.30;8.75;;;17.20;99.90;;;;;;5072565;28;20052;-86
2022/07/23 01:17:23;;;;;;;25.70;9.35;;;17.30;99.90;;;;;;5061955;28;20631;-86
2022/07/23 01:20:02;;;;;;;27.70;8.45;;;17.20;99.90;;;;;;5071585;28;20066;-86
2022/07/23 01:22:29;;;;;;;13.15;8.27;;;17.20;99.90;;;;;;5065800;28;20046;-86
2022/07/23 01:24:55;;;;;;;17.45;9.18;;;17.10;99.90;;;;;;5053283;28;20033;-87
2022/07/23 01:27:30;;;;;;;14.18;7.35;;;17.10;99.90;;;;;;5053659;28;20032;-87
2022/07/23 01:29:57;;;;;;;19.88;10.57;;;17.00;99.90;;;;;;5072721;28;20122;-86
2022/07/23 01:32:26;;;;;;;15.60;10.35;;;16.90;99.90;;;;;;5061676;28;20498;-87
2022/07/23 01:34:52;;;;;;;11.55;7.32;;;16.80;99.90;;;;;;5059029;28;20013;-88
2022/07/23 01:37:23;;;;;;;11.27;7.95;;;16.70;99.90;;;;;;5064153;28;20016;-88
2022/07/23 01:39:48;;;;;;;9.98;6.65;;;16.70;99.90;;;;;;5071655;28;20031;-88
2022/07/23 01:42:14;;;;;;;15.90;8.30;;;16.70;99.90;;;;;;5057778;28;20384;-90
2022/07/23 01:44:40;;;;;;;14.65;9.65;;;16.70;99.90;;;;;;5052510;28;20027;-89
2022/07/23 01:47:52;;;;;;;19.95;10.18;;;16.70;99.90;;;;;;5053724;28;20029;-88
2022/07/23 01:50:18;;;;;;;17.30;8.90;;;16.70;99.90;;;;;;5053447;28;20393;-88
2022/07/23 01:52:43;;;;;;;17.63;9.32;;;16.60;99.90;;;;;;5053205;28;20032;-87
2022/07/23 01:55:25;;;;;;;16.38;8.30;;;16.60;99.90;;;;;;5060870;28;20020;-87
2022/07/23 01:57:50;;;;;;;17.55;8.65;;;16.60;99.90;;;;;;5070987;28;20488;-87
2022/07/23 02:00:16;;;;;;;10.95;8.70;;;16.60;99.90;;;;;;5061745;28;20131;-87
2022/07/23 02:03:04;;;;;;;16.80;9.10;;;16.60;99.90;;;;;;5059929;28;20369;-88
2022/07/23 02:05:31;;;;;;;13.43;9.80;;;16.60;99.90;;;;;;5067336;28;20019;-87
2022/07/23 02:08:04;;;;;;;12.25;8.45;;;16.60;99.90;;;;;;5053046;28;20025;-86
2022/07/23 02:10:29;;;;;;;25.73;13.55;;;16.60;99.90;;;;;;5051864;28;20029;-86
2022/07/23 02:12:56;;;;;;;20.42;11.80;;;16.60;99.90;;;;;;5051537;28;20048;-86
2022/07/23 02:15:21;;;;;;;22.30;12.95;;;16.50;99.90;;;;;;5072202;28;20024;-86
2022/07/23 02:17:58;;;;;;;19.95;12.90;;;16.50;99.90;;;;;;5066095;28;20033;-85
2022/07/23 02:20:24;;;;;;;18.90;10.80;;;16.40;99.90;;;;;;5067157;28;21226;-86
2022/07/23 02:22:50;;;;;;;17.75;10.50;;;16.40;99.90;;;;;;5069604;28;20102;-85
2022/07/23 02:25:21;;;;;;;20.58;12.02;;;16.40;99.90;;;;;;5063897;28;20078;-86
2022/07/23 02:27:47;;;;;;;18.75;11.23;;;16.50;99.90;;;;;;5067020;28;20063;-87
2022/07/23 02:30:46;;;;;;;21.25;12.85;;;16.50;99.90;;;;;;5051081;28;20481;-86
2022/07/23 02:33:12;;;;;;;33.25;14.30;;;16.40;99.90;;;;;;5052406;28;20431;-86
2022/07/23 02:35:37;;;;;;;17.80;11.95;;;16.40;99.90;;;;;;5057750;28;20025;-86
2022/07/23 02:38:15;;;;;;;30.35;15.50;;;16.30;99.90;;;;;;5052739;28;20457;-85
2022/07/23 02:40:41;;;;;;;22.10;11.77;;;16.30;99.90;;;;;;5056556;28;20021;-84
2022/07/23 02:43:07;;;;;;;12.07;9.00;;;16.30;99.90;;;;;;5054433;28;20536;-83
2022/07/23 02:45:33;;;;;;;23.60;12.55;;;16.30;99.90;;;;;;5060255;28;20112;-83
2022/07/23 02:47:58;;;;;;;21.55;13.80;;;16.30;99.90;;;;;;5052246;28;20439;-83
2022/07/23 02:50:24;;;;;;;20.75;11.60;;;16.20;99.90;;;;;;5060160;28;20056;-83
2022/07/23 02:53:13;;;;;;;13.80;10.85;;;16.20;99.90;;;;;;5071695;28;20380;-83
2022/07/23 02:55:39;;;;;;;17.17;10.55;;;16.20;99.90;;;;;;5068091;28;20081;-83
2022/07/23 02:58:39;;;;;;;12.77;8.88;;;16.20;99.90;;;;;;5051403;28;20025;-83
2022/07/23 03:01:04;;;;;;;12.95;9.43;;;16.30;99.90;;;;;;5059964;28;20017;-83
2022/07/23 03:04:25;;;;;;;10.73;8.60;;;16.30;99.90;;;;;;5069040;28;20053;-83
2022/07/23 03:06:50;;;;;;;11.38;8.27;;;16.30;99.90;;;;;;5065331;28;20024;-83
2022/07/23 03:09:16;;;;;;;11.30;8.25;;;16.30;99.90;;;;;;5057897;28;20047;-83
2022/07/23 03:12:28;;;;;;;16.98;11.40;;;16.30;99.90;;;;;;5054048;28;20100;-83
2022/07/23 03:14:54;;;;;;;10.48;8.45;;;16.30;99.90;;;;;;5058040;28;20050;-82
2022/07/23 03:17:23;;;;;;;9.73;8.75;;;16.30;99.90;;;;;;5050657;28;20021;-82
2022/07/23 03:19:48;;;;;;;10.60;8.55;;;16.30;99.90;;;;;;5063702;28;20522;-83
2022/07/23 03:22:14;;;;;;;8.25;7.10;;;16.30;99.90;;;;;;5071002;28;20060;-83
2022/07/23 03:25:15;;;;;;;10.43;8.18;;;16.30;99.90;;;;;;5053385;28;20063;-83
2022/07/23 03:27:40;;;;;;;10.65;9.00;;;16.30;99.90;;;;;;5054165;28;20036;-84
2022/07/23 03:30:57;;;;;;;10.23;9.10;;;16.30;99.90;;;;;;5054857;28;20033;-83
2022/07/23 03:33:22;;;;;;;14.32;11.32;;;16.30;99.90;;;;;;5056213;28;20439;-83
2022/07/23 03:35:53;;;;;;;17.88;12.00;;;16.30;99.90;;;;;;5057648;28;20029;-82
2022/07/23 03:38:19;;;;;;;17.98;13.07;;;16.30;99.90;;;;;;5055544;28;20028;-82
2022/07/23 03:40:45;;;;;;;18.40;13.07;;;16.30;99.90;;;;;;5061200;28;20033;-84
2022/07/23 03:43:11;;;;;;;17.30;11.98;;;16.20;99.90;;;;;;5060463;28;20025;-83
2022/07/23 03:45:37;;;;;;;21.45;14.75;;;16.20;99.90;;;;;;5074065;28;20050;-82
2022/07/23 03:48:03;;;;;;;19.73;14.95;;;16.20;99.90;;;;;;5074282;28;20036;-83
2022/07/23 03:50:29;;;;;;;22.25;15.40;;;16.20;99.90;;;;;;5073270;28;20024;-84
2022/07/23 03:53:12;;;;;;;18.45;13.52;;;16.10;99.90;;;;;;5067910;28;20511;-83
2022/07/23 03:55:37;;;;;;;24.70;15.82;;;16.10;99.90;;;;;;5070563;28;20017;-83
2022/07/23 03:58:06;;;;;;;24.65;17.23;;;16.10;99.90;;;;;;5055426;28;20186;-83
2022/07/23 04:00:32;;;;;;;21.42;14.23;;;16.10;99.90;;;;;;5066163;28;20027;-82
2022/07/23 04:03:03;;;;;;;15.75;12.07;;;16.10;99.90;;;;;;5073834;28;20024;-82
2022/07/23 04:05:30;;;;;;;15.98;11.80;;;16.10;99.90;;;;;;5059600;28;20053;-82
2022/07/23 04:07:55;;;;;;;19.80;15.45;;;16.10;99.90;;;;;;5058805;28;20032;-82
2022/07/23 04:10:22;;;;;;;19.98;14.98;;;16.10;99.90;;;;;;5054932;28;20385;-81
2022/07/23 04:12:56;;;;;;;20.85;15.13;;;16.10;99.90;;;;;;5059188;28;20118;-81
2022/07/23 04:15:25;;;;;;;22.45;15.38;;;16.10;99.90;;;;;;5066591;28;20852;-81
2022/07/23 04:17:54;;;;;;;23.67;14.98;;;16.10;99.90;;;;;;5069691;28;20020;-82
2022/07/23 04:20:20;;;;;;;23.27;16.45;;;16.10;99.90;;;;;;5071471;28;20017;-82
2022/07/23 04:22:45;;;;;;;18.73;15.00;;;16.10;99.90;;;;;;5071978;28;20028;-82
2022/07/23 04:25:26;;;;;;;32.67;18.20;;;16.00;99.90;;;;;;5053631;28;20025;-82
2022/07/23 04:27:52;;;;;;;21.60;16.88;;;16.00;99.90;;;;;;5057713;28;20016;-82
2022/07/23 04:30:22;;;;;;;19.15;14.07;;;16.00;99.90;;;;;;5074055;28;20074;-82
2022/07/23 04:32:48;;;;;;;31.50;17.75;;;16.00;99.90;;;;;;5069761;28;20025;-82
2022/07/23 04:35:13;;;;;;;19.70;14.73;;;16.00;99.90;;;;;;5070424;28;20420;-87
2022/07/23 04:37:53;;;;;;;21.10;16.38;;;16.00;99.90;;;;;;5055472;28;20380;-87
2022/07/23 04:40:19;;;;;;;23.73;17.73;;;16.00;99.90;;;;;;5063187;28;20017;-86
2022/07/23 04:42:54;;;;;;;26.20;18.90;;;16.00;99.90;;;;;;5072933;28;20028;-87
2022/07/23 04:45:20;;;;;;;26.88;19.30;;;16.00;99.90;;;;;;5073083;28;20032;-87
2022/07/23 04:47:46;;;;;;;21.65;14.80;;;16.00;99.90;;;;;;5073133;28;20032;-87
2022/07/23 04:50:21;;;;;;;26.83;18.42;;;16.00;99.90;;;;;;5072942;28;20078;-87
2022/07/23 04:53:01;;;;;;;23.75;16.15;;;16.00;99.90;;;;;;5073151;28;20024;-87
2022/07/23 04:55:26;;;;;;;32.80;20.13;;;16.00;99.90;;;;;;5074235;28;20103;-87
2022/07/23 04:57:52;;;;;;;31.63;20.83;;;16.00;99.90;;;;;;5073940;28;20099;-87
2022/07/23 05:00:24;;;;;;;23.30;16.77;;;16.00;99.90;;;;;;5066729;28;20525;-87
2022/07/23 05:02:50;;;;;;;31.27;19.17;;;16.00;99.90;;;;;;5063798;28;20058;-87
2022/07/23 05:05:15;;;;;;;25.55;18.17;;;16.00;99.90;;;;;;5069559;28;20029;-87
2022/07/23 05:07:41;;;;;;;23.67;15.90;;;16.00;99.90;;;;;;5059053;28;20025;-86
2022/07/23 05:10:07;;;;;;;30.75;19.23;;;16.00;99.90;;;;;;5072227;28;20085;-87
2022/07/23 05:12:32;;;;;;;24.10;15.60;;;16.00;99.90;;;;;;5072575;28;20107;-86
2022/07/23 05:15:07;;;;;;;31.77;19.48;;;16.00;99.90;;;;;;5073302;28;20071;-86
2022/07/23 05:17:33;;;;;;;23.70;16.42;;;16.00;99.90;;;;;;5052484;28;20440;-86
2022/07/23 05:20:07;;;;;;;24.02;15.50;;;16.00;99.90;;;;;;5057240;28;20052;-86
2022/07/23 05:22:33;;;;;;;28.95;16.88;;;16.00;99.90;;;;;;5062697;28;20074;-87
2022/07/23 05:25:04;;;;;;;38.20;17.55;;;16.00;99.90;;;;;;5055215;28;20021;-86
2022/07/23 05:27:30;;;;;;;24.30;17.10;;;16.00;99.90;;;;;;5053726;28;20035;-86
2022/07/23 05:30:09;;;;;;;30.00;20.75;;;16.00;99.90;;;;;;5053565;28;20056;-86
2022/07/23 05:32:36;;;;;;;26.15;17.00;;;16.00;99.90;;;;;;5059313;28;20464;-87
2022/07/23 05:35:06;;;;;;;31.67;18.20;;;16.00;99.90;;;;;;5063800;28;20023;-86
2022/07/23 05:37:32;;;;;;;28.83;19.33;;;16.00;99.90;;;;;;5071020;28;20036;-87
2022/07/23 05:40:29;;;;;;;21.35;15.90;;;16.00;99.90;;;;;;5070900;28;20024;-86
2022/07/23 05:42:54;;;;;;;16.58;12.20;;;16.00;99.90;;;;;;5065223;28;20020;-87
2022/07/23 05:45:21;;;;;;;27.58;18.73;;;16.00;99.90;;;;;;5054748;28;20111;-87
2022/07/23 05:47:48;;;;;;;23.92;16.40;;;16.10;99.90;;;;;;5051859;28;20112;-87
2022/07/23 05:50:15;;;;;;;32.90;19.95;;;16.00;99.90;;;;;;5056066;28;20025;-87
2022/07/23 05:52:54;;;;;;;26.52;18.45;;;16.10;99.90;;;;;;5061493;28;20031;-87
2022/07/23 05:55:19;;;;;;;36.50;18.85;;;16.10;99.90;;;;;;5063183;28;20524;-86
2022/07/23 05:57:45;;;;;;;43.40;22.30;;;16.10;99.90;;;;;;5068522;28;20108;-86
2022/07/23 06:03:32;;;;;;;20.50;15.38;;;16.10;99.90;;;;;;5059779;28;20070;-87
2022/07/23 06:05:58;;;;;;;19.00;12.48;;;16.00;99.90;;;;;;5063098;28;20032;-86
2022/07/23 06:08:23;;;;;;;28.02;18.00;;;16.10;99.90;;;;;;5063717;28;20020;-87
2022/07/23 06:11:12;;;;;;;30.00;19.63;;;16.10;99.90;;;;;;5067132;28;20024;-88
2022/07/23 06:13:38;;;;;;;29.67;17.23;;;16.10;99.90;;;;;;5060312;28;20110;-87
2022/07/23 06:16:03;;;;;;;28.50;18.08;;;16.10;99.90;;;;;;5056824;28;20016;-87
2022/07/23 06:18:41;;;;;;;22.98;15.55;;;16.10;99.90;;;;;;5061035;28;20440;-88
2022/07/23 06:21:07;;;;;;;39.85;20.02;;;16.10;99.90;;;;;;5057937;28;20017;-87
2022/07/23 06:23:38;;;;;;;26.40;16.92;;;16.10;99.90;;;;;;5067600;28;20361;-86
2022/07/23 06:26:03;;;;;;;21.38;14.57;;;16.20;99.90;;;;;;5061175;28;20480;-87
2022/07/23 06:28:29;;;;;;;26.85;15.60;;;16.20;99.90;;;;;;5055889;28;20086;-88
2022/07/23 06:30:56;;;;;;;31.42;16.58;;;16.20;99.90;;;;;;5052617;28;20289;-88
2022/07/23 06:33:22;;;;;;;31.08;19.85;;;16.20;99.90;;;;;;5063580;28;20036;-88
2022/07/23 06:35:48;;;;;;;34.03;19.55;;;16.20;99.90;;;;;;5063556;28;20016;-87
2022/07/23 06:38:14;;;;;;;29.88;20.95;;;16.30;99.90;;;;;;5054736;28;20495;-89
2022/07/23 06:40:46;;;;;;;31.23;19.00;;;16.30;99.90;;;;;;5052277;28;20025;-88
2022/07/23 06:43:12;;;;;;;34.47;19.85;;;16.20;99.90;;;;;;5052690;28;20408;-88
2022/07/23 06:45:38;;;;;;;32.25;20.45;;;16.20;99.90;;;;;;5053764;28;20025;-87
2022/07/23 06:48:03;;;;;;;33.60;19.25;;;16.30;99.90;;;;;;5074945;28;20028;-88
2022/07/23 06:50:29;;;;;;;31.30;21.17;;;16.30;99.90;;;;;;5067307;28;20115;-88
2022/07/23 06:52:55;;;;;;;30.52;18.17;;;16.30;99.90;;;;;;5056762;28;20035;-88
2022/07/23 06:55:21;;;;;;;33.80;18.73;;;16.30;99.90;;;;;;5055153;28;20468;-88
2022/07/23 06:58:03;;;;;;;40.72;19.55;;;16.40;99.90;;;;;;5051986;28;20025;-88
2022/07/23 07:00:30;;;;;;;23.08;13.75;;;16.30;99.90;;;;;;5058517;28;20021;-89
2022/07/23 07:02:55;;;;;;;32.03;20.08;;;16.40;99.90;;;;;;5061064;28;20033;-89
2022/07/23 07:05:31;;;;;;;26.35;17.55;;;16.40;99.90;;;;;;5065396;28;20025;-88
2022/07/23 07:07:57;;;;;;;32.15;17.90;;;16.40;99.90;;;;;;5057595;28;20507;-89
2022/07/23 07:10:34;;;;;;;30.80;17.77;;;16.40;99.90;;;;;;5060146;28;20025;-88
2022/07/23 07:13:42;;;;;;;28.00;14.65;;;16.50;99.90;;;;;;5057220;28;20037;-89
2022/07/23 07:16:08;;;;;;;31.17;19.02;;;16.40;99.90;;;;;;5061844;28;20512;-90
2022/07/23 07:18:33;;;;;;;41.78;20.65;;;16.50;99.90;;;;;;5056823;28;20021;-89
2022/07/23 07:21:11;;;;;;;39.20;22.38;;;16.50;99.90;;;;;;5056789;28;20026;-88
2022/07/23 07:23:37;;;;;;;31.95;20.65;;;16.50;99.90;;;;;;5071511;28;20126;-89
2022/07/23 07:26:03;;;;;;;26.30;16.58;;;16.60;99.90;;;;;;5061321;28;20537;-89
2022/07/23 07:28:28;;;;;;;26.25;15.63;;;16.60;99.90;;;;;;5054356;28;20036;-89
2022/07/23 07:30:54;;;;;;;35.13;21.02;;;16.60;99.90;;;;;;5067473;28;20024;-89
2022/07/23 07:37:29;;;;;;;37.85;18.95;;;16.70;99.90;;;;;;5068246;28;20070;-89
2022/07/23 07:39:55;;;;;;;29.45;16.17;;;16.70;99.90;;;;;;5073886;28;20450;-88
2022/07/23 07:42:20;;;;;;;36.65;20.08;;;16.70;99.90;;;;;;5075295;28;20024;-90
2022/07/23 07:45:24;;;;;;;34.25;17.65;;;16.70;99.90;;;;;;5062799;28;20025;-89
2022/07/23 07:47:52;;;;;;;28.20;17.13;;;16.80;99.90;;;;;;5061907;28;20028;-89
2022/07/23 07:50:19;;;;;;;40.45;19.20;;;16.80;99.90;;;;;;5062925;28;20060;-89
2022/07/23 07:52:58;;;;;;;31.35;19.58;;;16.80;99.90;;;;;;5058674;28;20074;-89
2022/07/23 07:55:24;;;;;;;31.55;17.45;;;16.70;99.90;;;;;;5071697;28;20033;-89
2022/07/23 07:57:56;;;;;;;36.92;23.33;;;16.70;99.90;;;;;;5065496;28;20491;-89
2022/07/23 08:00:51;;;;;;;38.50;21.83;;;16.70;99.90;;;;;;5058629;28;20115;-89
2022/07/23 08:03:17;;;;;;;31.80;19.15;;;16.80;99.90;;;;;;5054233;28;20484;-89
2022/07/23 08:05:43;;;;;;;30.95;19.23;;;16.80;99.90;;;;;;5075187;28;20081;-89
2022/07/23 08:08:14;;;;;;;35.63;22.50;;;16.80;99.90;;;;;;5053630;28;20040;-89
2022/07/23 08:10:40;;;;;;;39.90;25.75;;;16.90;99.90;;;;;;5063243;28;20029;-88
2022/07/23 08:13:05;;;;;;;41.17;26.05;;;16.90;99.90;;;;;;5069050;28;20032;-90
2022/07/23 08:15:31;;;;;;;36.72;22.35;;;16.90;99.90;;;;;;5066346;28;20387;-89
2022/07/23 08:17:58;;;;;;;42.15;25.48;;;16.90;99.90;;;;;;5070688;28;20031;-90
2022/07/23 08:20:36;;;;;;;35.88;21.42;;;16.90;99.90;;;;;;5066849;28;20032;-90
2022/07/23 08:23:07;;;;;;;25.30;15.73;;;16.90;99.90;;;;;;5054495;28;20032;-90
2022/07/23 08:25:51;;;;;;;41.38;26.98;;;16.90;99.90;;;;;;5053540;28;20028;-90
2022/07/23 08:28:17;;;;;;;49.30;27.98;;;17.00;99.90;;;;;;5062413;28;20081;-90
2022/07/23 08:30:48;;;;;;;38.80;23.80;;;17.00;99.90;;;;;;5067146;28;20032;-90
2022/07/23 08:33:16;;;;;;;46.35;24.25;;;17.10;99.90;;;;;;5068484;28;20045;-90
2022/07/23 08:35:46;;;;;;;44.17;23.40;;;17.10;99.90;;;;;;5069553;28;20473;-90
2022/07/23 08:38:14;;;;;;;41.42;24.38;;;17.20;99.90;;;;;;5067083;28;20059;-90
2022/07/23 08:40:53;;;;;;;42.45;26.25;;;17.20;99.90;;;;;;5070248;28;20024;-90
2022/07/23 08:43:22;;;;;;;30.75;19.40;;;17.20;99.90;;;;;;5057166;28;20031;-89
2022/07/23 08:45:56;;;;;;;33.13;24.15;;;17.30;99.90;;;;;;5065482;28;20021;-90
2022/07/23 08:48:25;;;;;;;46.55;27.95;;;17.30;99.90;;;;;;5063567;28;20029;-90
2022/07/23 08:50:56;;;;;;;39.42;27.77;;;17.30;99.90;;;;;;5067686;28;20377;-90
2022/07/23 08:53:23;;;;;;;31.77;23.23;;;17.40;99.90;;;;;;5056761;28;20104;-89
2022/07/23 08:55:54;;;;;;;28.70;22.35;;;17.50;99.90;;;;;;5059599;28;20476;-88
2022/07/23 09:03:50;;;;;;;42.70;30.20;;;17.50;99.90;;;;;;5190421;23;19930;-83
2022/07/23 09:06:16;;;;;;;34.20;26.23;;;17.60;99.90;;;;;;4973683;28;20050;-83
2022/07/23 09:08:44;;;;;;;38.28;28.10;;;17.60;99.90;;;;;;4973330;28;20022;-83
2022/07/23 09:11:19;;;;;;;35.42;27.77;;;17.60;99.90;;;;;;4973474;28;20054;-83
2022/07/23 09:13:53;;;;;;;41.75;30.45;;;17.70;99.90;;;;;;4971344;28;20442;-82
2022/07/23 09:16:26;;;;;;;37.60;29.58;;;17.70;99.90;;;;;;4970106;28;20394;-83
2022/07/23 09:18:57;;;;;;;35.13;27.65;;;17.70;99.90;;;;;;4968456;28;20892;-83
2022/07/23 09:21:28;;;;;;;41.80;31.02;;;17.70;99.90;;;;;;4971826;28;20023;-83
2022/07/23 09:23:55;;;;;;;33.63;27.15;;;17.80;99.90;;;;;;4964500;28;20023;-83
2022/07/23 09:27:00;;;;;;;40.63;30.48;;;17.80;99.90;;;;;;4973729;28;20034;-83
2022/07/23 09:29:26;;;;;;;31.02;23.90;;;17.90;99.90;;;;;;4956110;28;20475;-83
2022/07/23 09:31:57;;;;;;;25.08;22.23;;;18.00;99.90;;;;;;4974088;28;20034;-82
2022/07/23 09:34:28;;;;;;;31.00;22.83;;;18.10;99.90;;;;;;4972150;28;20089;-83
2022/07/23 09:37:21;;;;;;;27.58;19.05;;;18.10;99.90;;;;;;4973667;28;20018;-84
2022/07/23 09:39:48;;;;;;;26.52;19.88;;;18.10;99.90;;;;;;4971016;28;20530;-84
2022/07/23 09:42:31;;;;;;;32.33;22.52;;;18.20;99.90;;;;;;4974109;28;20375;-85
2022/07/23 09:44:58;;;;;;;32.58;22.13;;;18.20;99.90;;;;;;4965331;28;20097;-85
2022/07/23 09:47:26;;;;;;;34.30;21.65;;;18.20;99.90;;;;;;4972941;28;20053;-84
2022/07/23 09:50:41;;;;;;;26.58;15.77;;;18.30;99.90;;;;;;4974319;28;20038;-84
2022/07/23 09:53:07;;;;;;;22.23;15.68;;;18.40;99.90;;;;;;4963635;28;20125;-85
2022/07/23 09:56:11;;;;;;;21.17;14.50;;;18.50;99.90;;;;;;4973049;28;20122;-84
2022/07/23 10:01:24;;;;;;;25.98;14.20;;;18.60;99.90;;;;;;4974415;28;20056;-86
2022/07/23 10:04:03;;;;;;;22.63;12.27;;;18.60;99.90;;;;;;4974158;28;20066;-85
2022/07/23 10:06:30;;;;;;;23.30;12.02;;;18.50;99.90;;;;;;4972238;28;20054;-85
2022/07/23 10:08:59;;;;;;;21.08;12.18;;;18.50;99.90;;;;;;4965907;28;20030;-85
2022/07/23 10:11:56;;;;;;;20.80;12.20;;;18.60;99.90;;;;;;4974102;28;20023;-85
2022/07/23 10:14:21;;;;;;;24.30;13.70;;;18.60;99.90;;;;;;4971763;28;20038;-84
2022/07/23 10:20:42;;;;;;;18.42;11.77;;;18.60;99.90;;;;;;4972766;28;20025;-85
2022/07/23 10:23:27;;;;;;;22.38;11.27;;;18.60;99.90;;;;;;4971776;28;20512;-86
2022/07/23 10:29:42;;;;;;;15.18;8.95;;;18.60;99.90;;;;;;4967547;28;20105;-87
2022/07/23 10:32:42;;;;;;;22.67;13.25;;;18.60;99.90;;;;;;4966351;28;20070;-88
2022/07/23 10:36:04;;;;;;;14.07;8.65;;;18.70;99.90;;;;;;4971134;28;20766;-87
2022/07/23 10:38:57;;;;;;;23.50;9.20;;;18.70;99.90;;;;;;4966521;28;20106;-87
2022/07/23 10:41:33;;;;;;;17.08;9.32;;;18.70;99.90;;;;;;4972041;28;20069;-87
2022/07/23 10:44:13;;;;;;;16.40;9.45;;;18.80;99.90;;;;;;4973029;28;20034;-87
2022/07/23 10:50:21;;;;;;;10.90;6.68;;;18.90;99.90;;;;;;4973880;28;20069;-89
2022/07/23 10:53:33;;;;;;;14.35;8.05;;;19.10;99.90;;;;;;4972834;28;20023;-89
2022/07/23 10:55:58;;;;;;;10.15;6.82;;;19.30;99.90;;;;;;4972710;28;20510;-88
2022/07/23 10:59:02;;;;;;;9.00;6.05;;;19.40;99.90;;;;;;4974102;28;20102;-88
2022/07/23 11:01:39;;;;;;;14.43;7.47;;;19.40;99.90;;;;;;4972966;28;20114;-89
2022/07/23 11:04:07;;;;;;;16.08;7.07;;;19.50;99.90;;;;;;4956192;28;20034;-88
2022/07/23 11:06:52;;;;;;;14.40;5.60;;;19.50;99.90;;;;;;4973144;28;20050;-89
2022/07/23 11:09:30;;;;;;;12.25;5.93;;;19.60;99.90;;;;;;4972382;28;20042;-89
2022/07/23 11:15:58;;;;;;;14.55;5.75;;;19.60;99.90;;;;;;4964553;28;20478;-89
2022/07/23 11:18:42;;;;;;;13.98;6.22;;;19.50;99.90;;;;;;4969169;28;20368;-88
2022/07/23 11:21:23;;;;;;;20.80;7.38;;;19.50;99.90;;;;;;4971461;28;20050;-87
2022/07/23 11:24:10;;;;;;;8.32;5.55;;;19.70;99.90;;;;;;4972075;28;20041;-88
2022/07/23 11:26:58;;;;;;;13.02;5.28;;;19.80;99.90;;;;;;4972583;28;20029;-89
2022/07/23 11:29:31;;;;;;;13.15;5.82;;;19.80;99.90;;;;;;4971612;28;20027;-87
2022/07/23 11:32:03;;;;;;;12.18;5.28;;;19.90;99.90;;;;;;4968449;28;20031;-88
2022/07/23 11:34:48;;;;;;;8.88;5.03;;;20.00;99.90;;;;;;4971340;28;20430;-87
2022/07/23 11:37:36;;;;;;;13.88;6.05;;;20.20;99.90;;;;;;4981920;28;20027;-89
2022/07/23 11:40:06;;;;;;;9.07;5.22;;;20.30;99.90;;;;;;4973143;28;20030;-88
2022/07/23 11:42:56;;;;;;;9.13;5.85;;;20.40;99.90;;;;;;4972389;28;20031;-87
2022/07/23 11:45:22;;;;;;;10.70;5.40;;;20.40;99.90;;;;;;4966475;28;20089;-87
2022/07/23 11:47:48;;;;;;;8.65;4.47;;;20.40;99.90;;;;;;4968883;28;20031;-88
2022/07/23 11:50:36;;;;;;;7.53;4.30;;;20.40;99.90;;;;;;4967864;28;20406;-87
2022/07/23 11:53:03;;;;;;;7.20;4.80;;;20.50;99.90;;;;;;4972251;28;20027;-88
2022/07/23 11:55:29;;;;;;;9.68;5.10;;;20.50;99.90;;;;;;4973323;28;20031;-87
2022/07/23 11:57:58;;;;;;;8.00;5.15;;;20.60;99.90;;;;;;4971374;28;20446;-86
2022/07/23 12:00:26;;;;;;;11.15;5.25;;;20.80;99.90;;;;;;4972108;28;20479;-87
2022/07/23 12:02:58;;;;;;;4.47;3.38;;;20.80;99.90;;;;;;4976096;28;20030;-86
2022/07/23 12:05:57;;;;;;;7.18;4.07;;;20.80;99.90;;;;;;4972662;28;20525;-87
2022/07/23 12:08:41;;;;;;;8.90;4.07;;;20.90;99.90;;;;;;4974719;28;20058;-88
2022/07/23 12:11:07;;;;;;;10.57;4.63;;;21.00;99.90;;;;;;4970965;28;20063;-87
2022/07/23 12:14:10;;;;;;;11.90;4.03;;;21.10;99.90;;;;;;4955863;28;20511;-87
2022/07/23 12:16:43;;;;;;;8.68;3.85;;;21.20;99.90;;;;;;4952003;29;20436;-87
2022/07/23 12:19:09;;;;;;;6.25;4.00;;;21.30;99.90;;;;;;4975324;28;20375;-88
2022/07/23 12:21:35;;;;;;;5.28;3.67;;;21.40;99.90;;;;;;4976526;28;20025;-88
2022/07/23 12:24:08;;;;;;;7.03;3.80;;;21.50;99.90;;;;;;4973908;28;20030;-88
2022/07/23 12:26:34;;;;;;;12.55;4.30;;;21.70;99.90;;;;;;4973695;28;20042;-84
2022/07/23 12:29:15;;;;;;;6.70;3.60;;;21.90;99.90;;;;;;4965282;28;20026;-88
2022/07/23 12:31:40;;;;;;;8.63;3.97;;;21.90;99.90;;;;;;4973431;28;20077;-86
2022/07/23 12:37:35;;;;;;;7.00;3.50;;;21.90;99.90;;;;;;4977930;28;20037;-87
2022/07/23 12:40:53;;;;;;;6.57;3.58;;;21.90;99.90;;;;;;4978249;28;20035;-89
2022/07/23 12:43:24;;;;;;;13.35;3.78;;;21.80;99.90;;;;;;4975247;28;20031;-89
2022/07/23 12:45:55;;;;;;;6.30;3.10;;;21.80;99.90;;;;;;4969940;28;20036;-88
2022/07/23 12:48:51;;;;;;;4.72;3.08;;;21.90;99.90;;;;;;4968932;28;20023;-88
2022/07/23 12:51:20;;;;;;;;;;;21.90;99.90;;;;;;4955699;29;20505;-88
2022/07/23 12:54:36;;;;;;;3.47;2.70;;;22.10;99.90;;;;;;4968181;28;19910;-89
2022/07/23 12:57:02;;;;;;;7.32;2.97;;;22.30;99.90;;;;;;4973872;28;20386;-91
2022/07/23 12:59:31;;;;;;;6.30;3.60;;;22.40;99.90;;;;;;4970498;28;20026;-89
2022/07/23 13:02:00;;;;;;;3.67;2.65;;;22.40;99.90;;;;;;4966070;28;20128;-89
2022/07/23 13:04:26;;;;;;;5.55;2.40;;;22.40;99.90;;;;;;4971737;28;20023;-91
2022/07/23 13:07:09;;;;;;;8.73;2.90;;;22.30;99.90;;;;;;4955475;29;20499;-91
2022/07/23 13:09:35;;;;;;;7.38;2.80;;;22.30;99.90;;;;;;4973662;28;20081;-91
2022/07/23 13:12:17;;;;;;;13.05;2.78;;;22.20;99.90;;;;;;4974417;28;20046;-91
2022/07/23 13:14:42;;;;;;;7.10;3.50;;;22.20;99.90;;;;;;4971343;28;20390;-90
2022/07/23 13:17:18;;;;;;;5.75;2.58;;;22.30;99.90;;;;;;4962795;28;20027;-90
2022/07/23 13:19:45;;;;;;;8.30;2.78;;;22.60;99.90;;;;;;4973887;28;20081;-90
2022/07/23 13:22:10;;;;;;;12.02;2.50;;;22.70;99.90;;;;;;4972801;28;20023;-91
2022/07/23 13:24:43;;;;;;;4.35;2.17;;;23.00;99.90;;;;;;4967759;28;20046;-91
2022/07/23 13:27:08;;;;;;;5.40;2.50;;;23.10;99.90;;;;;;4975316;28;20427;-89
2022/07/23 13:29:36;;;;;;;4.60;2.40;;;23.20;99.90;;;;;;4974837;28;20109;-91
2022/07/23 13:32:02;;;;;;;10.75;2.28;;;23.30;99.90;;;;;;4975585;28;20026;-92
2022/07/23 13:34:27;;;;;;;4.38;2.40;;;23.50;99.90;;;;;;4973735;28;20019;-92